sensor_id;sensor_type;location;lat;lon;timestamp;P1;durP1;ratioP1;P2;durP2;ratioP2
55633;SDS011;41504;53.162;6.788;2022-09-21T00:01:11;7.00;;;2.97;;
55633;SDS011;41504;53.162;6.788;2022-09-21T00:03:40;3.85;;;2.28;;
55633;SDS011;41504;53.162;6.788;2022-09-21T00:06:11;5.55;;;2.38;;
55633;SDS011;41504;53.162;6.788;2022-09-21T00:08:39;5.43;;;2.30;;
55633;SDS011;41504;53.162;6.788;2022-09-21T00:11:05;6.30;;;2.40;;
55633;SDS011;41504;53.162;6.788;2022-09-21T00:13:33;7.18;;;2.60;;
55633;SDS011;41504;53.162;6.788;2022-09-21T00:16:04;6.22;;;2.20;;
55633;SDS011;41504;53.162;6.788;2022-09-21T00:18:31;6.25;;;2.40;;
55633;SDS011;41504;53.162;6.788;2022-09-21T00:20:57;4.00;;;2.20;;
55633;SDS011;41504;53.162;6.788;2022-09-21T00:23:23;6.20;;;2.40;;
55633;SDS011;41504;53.162;6.788;2022-09-21T00:25:49;5.55;;;2.30;;
55633;SDS011;41504;53.162;6.788;2022-09-21T00:28:14;4.55;;;2.30;;
55633;SDS011;41504;53.162;6.788;2022-09-21T00:30:40;4.38;;;2.20;;
55633;SDS011;41504;53.162;6.788;2022-09-21T00:33:06;4.07;;;2.15;;
55633;SDS011;41504;53.162;6.788;2022-09-21T00:35:32;4.20;;;2.17;;
55633;SDS011;41504;53.162;6.788;2022-09-21T00:38:02;6.25;;;2.35;;
55633;SDS011;41504;53.162;6.788;2022-09-21T00:40:28;6.07;;;2.28;;
55633;SDS011;41504;53.162;6.788;2022-09-21T00:43:09;6.13;;;2.50;;
55633;SDS011;41504;53.162;6.788;2022-09-21T00:45:36;4.70;;;2.17;;
55633;SDS011;41504;53.162;6.788;2022-09-21T00:48:02;6.25;;;2.55;;
55633;SDS011;41504;53.162;6.788;2022-09-21T00:50:28;5.65;;;2.30;;
55633;SDS011;41504;53.162;6.788;2022-09-21T00:52:54;5.53;;;2.53;;
55633;SDS011;41504;53.162;6.788;2022-09-21T00:55:33;4.00;;;2.20;;
55633;SDS011;41504;53.162;6.788;2022-09-21T00:58:08;5.05;;;2.30;;
55633;SDS011;41504;53.162;6.788;2022-09-21T01:00:39;6.43;;;2.50;;
55633;SDS011;41504;53.162;6.788;2022-09-21T01:03:05;6.10;;;2.35;;
55633;SDS011;41504;53.162;6.788;2022-09-21T01:05:33;3.92;;;2.28;;
55633;SDS011;41504;53.162;6.788;2022-09-21T01:07:59;3.30;;;1.98;;
55633;SDS011;41504;53.162;6.788;2022-09-21T01:10:45;3.53;;;2.13;;
55633;SDS011;41504;53.162;6.788;2022-09-21T01:18:51;4.05;;;2.28;;
55633;SDS011;41504;53.162;6.788;2022-09-21T01:21:33;4.28;;;2.10;;
55633;SDS011;41504;53.162;6.788;2022-09-21T01:24:17;4.40;;;2.33;;
55633;SDS011;41504;53.162;6.788;2022-09-21T01:34:44;3.78;;;1.95;;
55633;SDS011;41504;53.162;6.788;2022-09-21T01:37:32;4.43;;;2.38;;
55633;SDS011;41504;53.162;6.788;2022-09-21T01:40:04;4.10;;;2.00;;
55633;SDS011;41504;53.162;6.788;2022-09-21T01:42:43;3.58;;;2.00;;
55633;SDS011;41504;53.162;6.788;2022-09-21T01:45:11;4.53;;;2.30;;
55633;SDS011;41504;53.162;6.788;2022-09-21T01:47:42;4.30;;;2.30;;
55633;SDS011;41504;53.162;6.788;2022-09-21T01:50:11;5.43;;;2.42;;
55633;SDS011;41504;53.162;6.788;2022-09-21T01:53:00;4.70;;;2.08;;
55633;SDS011;41504;53.162;6.788;2022-09-21T01:55:33;4.90;;;2.00;;
55633;SDS011;41504;53.162;6.788;2022-09-21T01:58:29;4.25;;;2.10;;
55633;SDS011;41504;53.162;6.788;2022-09-21T02:00:51;5.07;;;2.30;;
55633;SDS011;41504;53.162;6.788;2022-09-21T02:05:51;4.75;;;2.13;;
55633;SDS011;41504;53.162;6.788;2022-09-21T02:08:17;5.25;;;2.70;;
55633;SDS011;41504;53.162;6.788;2022-09-21T02:10:44;4.13;;;2.30;;
55633;SDS011;41504;53.162;6.788;2022-09-21T02:13:13;4.38;;;2.50;;
55633;SDS011;41504;53.162;6.788;2022-09-21T02:18:45;4.43;;;2.05;;
55633;SDS011;41504;53.162;6.788;2022-09-21T02:21:29;4.22;;;2.28;;
55633;SDS011;41504;53.162;6.788;2022-09-21T02:26:28;4.35;;;2.28;;
55633;SDS011;41504;53.162;6.788;2022-09-21T02:29:09;7.03;;;2.55;;
55633;SDS011;41504;53.162;6.788;2022-09-21T02:42:42;5.10;;;2.38;;
55633;SDS011;41504;53.162;6.788;2022-09-21T02:45:13;5.03;;;2.38;;
55633;SDS011;41504;53.162;6.788;2022-09-21T02:47:58;4.55;;;2.10;;
55633;SDS011;41504;53.162;6.788;2022-09-21T02:50:35;7.53;;;2.50;;
55633;SDS011;41504;53.162;6.788;2022-09-21T02:53:05;5.07;;;1.95;;
55633;SDS011;41504;53.162;6.788;2022-09-21T02:55:33;3.83;;;2.05;;
55633;SDS011;41504;53.162;6.788;2022-09-21T02:58:01;5.60;;;2.30;;
55633;SDS011;41504;53.162;6.788;2022-09-21T03:00:29;3.65;;;2.00;;
55633;SDS011;41504;53.162;6.788;2022-09-21T03:02:55;4.72;;;2.15;;
55633;SDS011;41504;53.162;6.788;2022-09-21T03:05:21;4.60;;;2.10;;
55633;SDS011;41504;53.162;6.788;2022-09-21T03:07:47;5.78;;;2.50;;
55633;SDS011;41504;53.162;6.788;2022-09-21T03:10:12;4.78;;;2.33;;
55633;SDS011;41504;53.162;6.788;2022-09-21T03:12:38;5.95;;;2.38;;
55633;SDS011;41504;53.162;6.788;2022-09-21T03:15:04;6.25;;;2.10;;
55633;SDS011;41504;53.162;6.788;2022-09-21T03:17:30;5.10;;;2.13;;
55633;SDS011;41504;53.162;6.788;2022-09-21T03:19:56;5.80;;;2.08;;
55633;SDS011;41504;53.162;6.788;2022-09-21T03:22:22;4.05;;;2.20;;
55633;SDS011;41504;53.162;6.788;2022-09-21T03:24:48;5.03;;;2.20;;
55633;SDS011;41504;53.162;6.788;2022-09-21T03:27:15;3.58;;;2.03;;
55633;SDS011;41504;53.162;6.788;2022-09-21T03:29:43;5.00;;;1.95;;
55633;SDS011;41504;53.162;6.788;2022-09-21T03:32:09;5.72;;;2.20;;
55633;SDS011;41504;53.162;6.788;2022-09-21T03:34:35;3.42;;;2.17;;
55633;SDS011;41504;53.162;6.788;2022-09-21T03:37:02;4.65;;;2.10;;
55633;SDS011;41504;53.162;6.788;2022-09-21T03:39:29;5.13;;;2.05;;
55633;SDS011;41504;53.162;6.788;2022-09-21T03:41:55;4.45;;;2.13;;
55633;SDS011;41504;53.162;6.788;2022-09-21T03:44:21;4.10;;;2.10;;
55633;SDS011;41504;53.162;6.788;2022-09-21T03:46:48;5.97;;;2.00;;
55633;SDS011;41504;53.162;6.788;2022-09-21T03:49:14;4.35;;;1.90;;
55633;SDS011;41504;53.162;6.788;2022-09-21T03:51:40;3.20;;;1.92;;
55633;SDS011;41504;53.162;6.788;2022-09-21T03:54:06;4.43;;;2.00;;
55633;SDS011;41504;53.162;6.788;2022-09-21T03:56:32;4.70;;;1.90;;
55633;SDS011;41504;53.162;6.788;2022-09-21T03:58:58;5.15;;;2.13;;
55633;SDS011;41504;53.162;6.788;2022-09-21T04:01:24;3.58;;;1.98;;
55633;SDS011;41504;53.162;6.788;2022-09-21T04:03:49;6.05;;;2.47;;
55633;SDS011;41504;53.162;6.788;2022-09-21T04:06:15;4.70;;;2.10;;
55633;SDS011;41504;53.162;6.788;2022-09-21T04:08:41;3.08;;;1.70;;
55633;SDS011;41504;53.162;6.788;2022-09-21T04:11:14;3.67;;;1.70;;
55633;SDS011;41504;53.162;6.788;2022-09-21T04:13:41;3.42;;;1.80;;
55633;SDS011;41504;53.162;6.788;2022-09-21T04:16:07;2.38;;;1.40;;
55633;SDS011;41504;53.162;6.788;2022-09-21T04:18:34;4.40;;;1.90;;
55633;SDS011;41504;53.162;6.788;2022-09-21T04:21:02;4.60;;;2.00;;
55633;SDS011;41504;53.162;6.788;2022-09-21T04:23:28;3.47;;;1.75;;
55633;SDS011;41504;53.162;6.788;2022-09-21T04:25:54;4.80;;;1.90;;
55633;SDS011;41504;53.162;6.788;2022-09-21T04:28:21;2.90;;;1.70;;
55633;SDS011;41504;53.162;6.788;2022-09-21T04:30:51;2.97;;;1.67;;
55633;SDS011;41504;53.162;6.788;2022-09-21T04:33:18;4.90;;;1.73;;
55633;SDS011;41504;53.162;6.788;2022-09-21T04:35:44;2.83;;;1.65;;
55633;SDS011;41504;53.162;6.788;2022-09-21T04:38:09;3.42;;;1.92;;
55633;SDS011;41504;53.162;6.788;2022-09-21T04:40:36;3.83;;;1.70;;
55633;SDS011;41504;53.162;6.788;2022-09-21T04:43:02;3.55;;;1.67;;
55633;SDS011;41504;53.162;6.788;2022-09-21T04:45:28;3.22;;;1.85;;
55633;SDS011;41504;53.162;6.788;2022-09-21T04:47:55;3.95;;;1.90;;
55633;SDS011;41504;53.162;6.788;2022-09-21T04:50:20;3.72;;;1.90;;
55633;SDS011;41504;53.162;6.788;2022-09-21T04:52:46;4.10;;;1.73;;
55633;SDS011;41504;53.162;6.788;2022-09-21T04:55:12;3.53;;;1.70;;
55633;SDS011;41504;53.162;6.788;2022-09-21T04:57:37;6.88;;;2.13;;
55633;SDS011;41504;53.162;6.788;2022-09-21T05:00:03;4.72;;;2.10;;
55633;SDS011;41504;53.162;6.788;2022-09-21T05:02:30;4.78;;;2.10;;
55633;SDS011;41504;53.162;6.788;2022-09-21T05:04:55;4.57;;;2.20;;
55633;SDS011;41504;53.162;6.788;2022-09-21T05:07:21;4.63;;;2.22;;
55633;SDS011;41504;53.162;6.788;2022-09-21T05:09:47;5.35;;;2.13;;
55633;SDS011;41504;53.162;6.788;2022-09-21T05:12:28;4.63;;;2.22;;
55633;SDS011;41504;53.162;6.788;2022-09-21T05:14:57;3.72;;;1.90;;
55633;SDS011;41504;53.162;6.788;2022-09-21T18:20:26;7.70;;;2.60;;
55633;SDS011;41504;53.162;6.788;2022-09-21T18:26:00;7.32;;;2.95;;
55633;SDS011;41504;53.162;6.788;2022-09-21T18:33:54;7.55;;;3.80;;
55633;SDS011;41504;53.162;6.788;2022-09-21T18:36:46;9.82;;;3.67;;
55633;SDS011;41504;53.162;6.788;2022-09-21T18:39:29;9.07;;;3.55;;
55633;SDS011;41504;53.162;6.788;2022-09-21T18:42:04;5.75;;;2.90;;
55633;SDS011;41504;53.162;6.788;2022-09-21T18:52:20;7.55;;;2.97;;
55633;SDS011;41504;53.162;6.788;2022-09-21T18:55:00;9.43;;;3.28;;
55633;SDS011;41504;53.162;6.788;2022-09-21T18:57:26;5.38;;;2.70;;
55633;SDS011;41504;53.162;6.788;2022-09-21T18:59:56;6.57;;;3.20;;
55633;SDS011;41504;53.162;6.788;2022-09-21T19:02:23;9.18;;;3.47;;
55633;SDS011;41504;53.162;6.788;2022-09-21T19:04:49;8.07;;;3.58;;
55633;SDS011;41504;53.162;6.788;2022-09-21T19:07:17;7.57;;;3.08;;
55633;SDS011;41504;53.162;6.788;2022-09-21T19:19:04;9.68;;;3.65;;
55633;SDS011;41504;53.162;6.788;2022-09-21T19:24:43;7.32;;;3.60;;
55633;SDS011;41504;53.162;6.788;2022-09-21T19:35:15;9.45;;;4.45;;
55633;SDS011;41504;53.162;6.788;2022-09-21T19:37:50;8.13;;;3.72;;
55633;SDS011;41504;53.162;6.788;2022-09-21T19:40:18;9.45;;;5.20;;
55633;SDS011;41504;53.162;6.788;2022-09-21T19:48:10;9.98;;;4.50;;
55633;SDS011;41504;53.162;6.788;2022-09-21T19:53:17;9.80;;;4.57;;
55633;SDS011;41504;53.162;6.788;2022-09-21T19:56:01;9.48;;;4.47;;
55633;SDS011;41504;53.162;6.788;2022-09-21T19:58:51;9.02;;;4.45;;
55633;SDS011;41504;53.162;6.788;2022-09-21T20:01:35;9.85;;;4.97;;
55633;SDS011;41504;53.162;6.788;2022-09-21T20:04:06;7.78;;;4.03;;
55633;SDS011;41504;53.162;6.788;2022-09-21T20:06:38;8.10;;;4.15;;
55633;SDS011;41504;53.162;6.788;2022-09-21T20:09:14;7.93;;;3.95;;
55633;SDS011;41504;53.162;6.788;2022-09-21T20:11:49;8.75;;;4.30;;
55633;SDS011;41504;53.162;6.788;2022-09-21T20:14:41;7.78;;;4.57;;
55633;SDS011;41504;53.162;6.788;2022-09-21T20:17:35;7.65;;;3.95;;
55633;SDS011;41504;53.162;6.788;2022-09-21T20:20:28;8.35;;;4.05;;
55633;SDS011;41504;53.162;6.788;2022-09-21T20:22:54;9.65;;;4.10;;
55633;SDS011;41504;53.162;6.788;2022-09-21T20:27:56;12.32;;;5.75;;
55633;SDS011;41504;53.162;6.788;2022-09-21T20:30:27;19.33;;;9.95;;
55633;SDS011;41504;53.162;6.788;2022-09-21T20:33:14;14.82;;;7.95;;
55633;SDS011;41504;53.162;6.788;2022-09-21T20:35:42;12.57;;;5.57;;
55633;SDS011;41504;53.162;6.788;2022-09-21T20:38:08;9.40;;;3.97;;
55633;SDS011;41504;53.162;6.788;2022-09-21T20:40:35;7.88;;;4.18;;
55633;SDS011;41504;53.162;6.788;2022-09-21T20:43:01;9.32;;;3.53;;
55633;SDS011;41504;53.162;6.788;2022-09-21T20:45:27;6.57;;;3.17;;
55633;SDS011;41504;53.162;6.788;2022-09-21T20:47:54;7.78;;;3.28;;
55633;SDS011;41504;53.162;6.788;2022-09-21T20:50:21;7.88;;;3.40;;
55633;SDS011;41504;53.162;6.788;2022-09-21T20:52:50;6.60;;;3.00;;
55633;SDS011;41504;53.162;6.788;2022-09-21T20:55:16;5.82;;;2.80;;
55633;SDS011;41504;53.162;6.788;2022-09-21T20:57:44;7.80;;;3.30;;
55633;SDS011;41504;53.162;6.788;2022-09-21T21:00:11;6.78;;;3.10;;
55633;SDS011;41504;53.162;6.788;2022-09-21T21:02:39;6.32;;;2.95;;
55633;SDS011;41504;53.162;6.788;2022-09-21T21:05:05;6.65;;;2.90;;
55633;SDS011;41504;53.162;6.788;2022-09-21T21:07:32;6.70;;;3.17;;
55633;SDS011;41504;53.162;6.788;2022-09-21T21:09:59;6.22;;;2.60;;
55633;SDS011;41504;53.162;6.788;2022-09-21T21:12:25;6.95;;;2.85;;
55633;SDS011;41504;53.162;6.788;2022-09-21T21:14:51;6.00;;;2.65;;
55633;SDS011;41504;53.162;6.788;2022-09-21T21:17:17;6.32;;;2.38;;
55633;SDS011;41504;53.162;6.788;2022-09-21T21:19:43;5.95;;;2.90;;
55633;SDS011;41504;53.162;6.788;2022-09-21T21:22:10;6.25;;;2.78;;
55633;SDS011;41504;53.162;6.788;2022-09-21T21:24:37;5.00;;;2.60;;
55633;SDS011;41504;53.162;6.788;2022-09-21T21:29:34;7.20;;;2.85;;
55633;SDS011;41504;53.162;6.788;2022-09-21T21:32:00;6.82;;;3.15;;
55633;SDS011;41504;53.162;6.788;2022-09-21T21:34:26;7.40;;;2.70;;
55633;SDS011;41504;53.162;6.788;2022-09-21T21:36:52;6.03;;;2.83;;
55633;SDS011;41504;53.162;6.788;2022-09-21T21:39:18;6.00;;;2.95;;
55633;SDS011;41504;53.162;6.788;2022-09-21T21:41:43;6.65;;;3.08;;
55633;SDS011;41504;53.162;6.788;2022-09-21T21:44:09;6.60;;;3.13;;
55633;SDS011;41504;53.162;6.788;2022-09-21T21:46:35;5.70;;;3.22;;
55633;SDS011;41504;53.162;6.788;2022-09-21T21:49:01;7.63;;;2.95;;
55633;SDS011;41504;53.162;6.788;2022-09-21T21:51:27;6.88;;;2.65;;
55633;SDS011;41504;53.162;6.788;2022-09-21T21:53:53;7.35;;;2.80;;
55633;SDS011;41504;53.162;6.788;2022-09-21T21:56:19;7.78;;;2.70;;
55633;SDS011;41504;53.162;6.788;2022-09-21T21:58:50;6.45;;;2.65;;
55633;SDS011;41504;53.162;6.788;2022-09-21T22:01:23;4.60;;;2.60;;
55633;SDS011;41504;53.162;6.788;2022-09-21T22:03:54;6.32;;;2.60;;
55633;SDS011;41504;53.162;6.788;2022-09-21T22:06:21;5.30;;;2.50;;
55633;SDS011;41504;53.162;6.788;2022-09-21T22:08:47;7.35;;;2.45;;
55633;SDS011;41504;53.162;6.788;2022-09-21T22:11:14;5.03;;;2.35;;
55633;SDS011;41504;53.162;6.788;2022-09-21T22:13:42;6.07;;;2.25;;
55633;SDS011;41504;53.162;6.788;2022-09-21T22:16:10;5.55;;;2.38;;
55633;SDS011;41504;53.162;6.788;2022-09-21T22:18:38;7.68;;;2.97;;
55633;SDS011;41504;53.162;6.788;2022-09-21T22:21:05;5.80;;;2.33;;
55633;SDS011;41504;53.162;6.788;2022-09-21T22:23:36;5.60;;;2.40;;
55633;SDS011;41504;53.162;6.788;2022-09-21T22:26:08;5.15;;;2.28;;
55633;SDS011;41504;53.162;6.788;2022-09-21T22:28:36;8.63;;;2.85;;
55633;SDS011;41504;53.162;6.788;2022-09-21T22:31:06;8.27;;;2.90;;
55633;SDS011;41504;53.162;6.788;2022-09-21T22:33:33;4.65;;;2.72;;
55633;SDS011;41504;53.162;6.788;2022-09-21T22:36:00;6.03;;;2.60;;
55633;SDS011;41504;53.162;6.788;2022-09-21T22:38:31;6.82;;;2.65;;
55633;SDS011;41504;53.162;6.788;2022-09-21T22:41:07;5.30;;;2.30;;
55633;SDS011;41504;53.162;6.788;2022-09-21T22:43:41;5.50;;;2.70;;
55633;SDS011;41504;53.162;6.788;2022-09-21T22:46:07;6.80;;;2.70;;
55633;SDS011;41504;53.162;6.788;2022-09-21T22:48:33;5.95;;;2.63;;
55633;SDS011;41504;53.162;6.788;2022-09-21T22:50:59;6.88;;;3.15;;
55633;SDS011;41504;53.162;6.788;2022-09-21T22:53:26;7.47;;;3.03;;
55633;SDS011;41504;53.162;6.788;2022-09-21T22:58:27;6.85;;;3.20;;
55633;SDS011;41504;53.162;6.788;2022-09-21T23:01:00;7.72;;;3.38;;
55633;SDS011;41504;53.162;6.788;2022-09-21T23:03:29;8.38;;;3.53;;
55633;SDS011;41504;53.162;6.788;2022-09-21T23:05:55;8.45;;;3.40;;
55633;SDS011;41504;53.162;6.788;2022-09-21T23:08:21;7.78;;;4.25;;
55633;SDS011;41504;53.162;6.788;2022-09-21T23:10:47;8.00;;;3.38;;
55633;SDS011;41504;53.162;6.788;2022-09-21T23:13:13;7.35;;;3.40;;
55633;SDS011;41504;53.162;6.788;2022-09-21T23:15:40;5.40;;;3.15;;
55633;SDS011;41504;53.162;6.788;2022-09-21T23:18:06;7.53;;;3.33;;
55633;SDS011;41504;53.162;6.788;2022-09-21T23:20:32;6.57;;;3.30;;
55633;SDS011;41504;53.162;6.788;2022-09-21T23:22:58;8.00;;;3.00;;
55633;SDS011;41504;53.162;6.788;2022-09-21T23:25:24;5.97;;;2.92;;
55633;SDS011;41504;53.162;6.788;2022-09-21T23:27:50;7.57;;;2.88;;
55633;SDS011;41504;53.162;6.788;2022-09-21T23:30:17;7.82;;;2.90;;
55633;SDS011;41504;53.162;6.788;2022-09-21T23:32:43;7.50;;;3.00;;
55633;SDS011;41504;53.162;6.788;2022-09-21T23:35:08;6.53;;;2.70;;
55633;SDS011;41504;53.162;6.788;2022-09-21T23:37:34;6.85;;;3.03;;
55633;SDS011;41504;53.162;6.788;2022-09-21T23:40:00;5.60;;;3.10;;
55633;SDS011;41504;53.162;6.788;2022-09-21T23:42:26;5.70;;;2.70;;
55633;SDS011;41504;53.162;6.788;2022-09-21T23:44:51;5.35;;;2.95;;
55633;SDS011;41504;53.162;6.788;2022-09-21T23:47:17;6.28;;;3.00;;
55633;SDS011;41504;53.162;6.788;2022-09-21T23:49:43;6.50;;;2.75;;
55633;SDS011;41504;53.162;6.788;2022-09-21T23:52:09;6.43;;;3.30;;
55633;SDS011;41504;53.162;6.788;2022-09-21T23:54:34;7.05;;;3.10;;
55633;SDS011;41504;53.162;6.788;2022-09-21T23:57:00;5.90;;;2.80;;
55633;SDS011;41504;53.162;6.788;2022-09-21T23:59:26;5.40;;;3.15;;
